createdAt,value
2023-10-05T00:01:23.251Z,5.20
2023-10-05T00:03:53.933Z,5.60
2023-10-05T00:06:25.106Z,10.40
2023-10-05T00:08:54.107Z,9.50
2023-10-05T00:11:45.739Z,8.33
2023-10-05T00:14:14.018Z,7.40
2023-10-05T00:16:45.587Z,7.83
2023-10-05T00:19:14.563Z,7.70
2023-10-05T00:21:53.039Z,6.90
2023-10-05T00:24:30.439Z,7.27
2023-10-05T00:26:59.556Z,8.60
2023-10-05T00:29:35.909Z,9.57
2023-10-05T00:32:07.616Z,6.53
2023-10-05T00:34:35.410Z,6.87
2023-10-05T00:37:07.503Z,5.43
2023-10-05T00:39:35.828Z,7.60
2023-10-05T00:42:06.320Z,4.77
2023-10-05T00:44:36.245Z,6.27
2023-10-05T00:47:07.718Z,9.00
2023-10-05T00:49:46.920Z,6.60
2023-10-05T00:52:16.690Z,5.87
2023-10-05T00:54:49.604Z,6.03
2023-10-05T00:57:25.558Z,8.93
2023-10-05T00:59:59.268Z,5.63
2023-10-05T01:02:28.062Z,7.53
2023-10-05T01:05:02.184Z,8.97
2023-10-05T01:07:50.935Z,6.77
2023-10-05T01:10:25.127Z,5.37
2023-10-05T01:12:55.458Z,8.70
2023-10-05T01:15:25.400Z,14.67
2023-10-05T01:17:53.996Z,6.53
2023-10-05T01:20:21.915Z,8.23
2023-10-05T01:22:50.398Z,7.50
2023-10-05T01:25:18.274Z,6.93
2023-10-05T01:27:48.364Z,6.77
2023-10-05T01:30:19.371Z,7.47
2023-10-05T01:32:47.696Z,5.53
2023-10-05T01:35:16.289Z,8.77
2023-10-05T01:37:48.001Z,7.47
2023-10-05T01:40:20.029Z,5.83
2023-10-05T01:42:53.281Z,11.83
2023-10-05T01:45:31.271Z,7.27
2023-10-05T01:48:06.457Z,10.30
2023-10-05T01:50:34.286Z,7.73
2023-10-05T01:53:08.545Z,6.17
2023-10-05T01:55:37.060Z,7.73
2023-10-05T01:58:09.528Z,7.17
2023-10-05T02:00:39.977Z,8.50
2023-10-05T02:03:09.310Z,6.73
2023-10-05T02:05:37.645Z,8.20
2023-10-05T02:08:06.303Z,12.27
2023-10-05T02:10:34.396Z,7.40
2023-10-05T02:13:02.603Z,9.23
2023-10-05T02:15:30.761Z,8.67
2023-10-05T02:18:08.639Z,9.17
2023-10-05T02:20:39.892Z,7.57
2023-10-05T02:23:25.697Z,6.60
2023-10-05T02:26:34.372Z,7.83
2023-10-05T02:29:14.965Z,9.97
2023-10-05T02:31:58.556Z,8.70
2023-10-05T02:34:30.519Z,9.17
2023-10-05T02:36:58.557Z,7.43
2023-10-05T02:39:26.280Z,8.83
2023-10-05T02:41:55.454Z,8.23
2023-10-05T02:44:23.395Z,6.40
2023-10-05T02:46:51.198Z,6.90
2023-10-05T02:49:19.850Z,8.07
2023-10-05T02:51:47.664Z,8.97
2023-10-05T02:54:16.218Z,6.93
2023-10-05T02:56:44.256Z,12.10
2023-10-05T02:59:12.260Z,12.17
2023-10-05T03:01:40.160Z,9.10
2023-10-05T03:04:17.099Z,7.30
2023-10-05T03:06:46.613Z,7.57
2023-10-05T03:09:14.483Z,9.00
2023-10-05T03:11:43.327Z,12.77
2023-10-05T03:14:12.525Z,10.53
2023-10-05T03:16:48.983Z,15.03
2023-10-05T03:19:22.007Z,7.20
2023-10-05T03:21:59.370Z,7.93
2023-10-05T03:24:27.442Z,6.83
2023-10-05T03:26:57.751Z,6.47
2023-10-05T03:29:25.744Z,7.73
2023-10-05T03:31:55.567Z,7.17
2023-10-05T03:34:28.071Z,7.77
2023-10-05T03:36:56.607Z,5.20
2023-10-05T03:39:26.862Z,8.30
2023-10-05T03:41:55.334Z,9.17
2023-10-05T03:44:25.839Z,8.23
2023-10-05T03:46:54.112Z,8.03
2023-10-05T03:49:23.608Z,8.60
2023-10-05T03:51:52.421Z,6.50
2023-10-05T03:54:25.705Z,9.77
2023-10-05T03:57:20.170Z,10.67
2023-10-05T03:59:48.839Z,10.03
2023-10-05T04:02:19.355Z,6.40
2023-10-05T04:04:47.113Z,9.97
2023-10-05T04:07:15.311Z,7.37
2023-10-05T04:09:43.062Z,5.40
2023-10-05T04:12:11.889Z,6.87
2023-10-05T04:14:40.091Z,11.90
2023-10-05T04:17:12.664Z,8.77
2023-10-05T04:19:43.180Z,5.37
2023-10-05T04:22:11.136Z,7.37
2023-10-05T04:24:39.849Z,5.60
2023-10-05T04:27:09.446Z,7.07
2023-10-05T04:29:38.914Z,9.57
2023-10-05T04:32:09.459Z,9.97
2023-10-05T04:34:37.265Z,7.40
2023-10-05T04:37:05.103Z,13.27
2023-10-05T04:39:33.999Z,8.30
2023-10-05T04:42:12.524Z,8.23
2023-10-05T04:44:41.706Z,7.67
2023-10-05T04:47:10.879Z,13.70
2023-10-05T04:49:39.169Z,9.53
2023-10-05T04:52:07.864Z,12.13
2023-10-05T04:54:40.643Z,18.53
2023-10-05T04:57:08.694Z,14.40
2023-10-05T04:59:36.424Z,14.10
2023-10-05T05:02:19.952Z,17.37
2023-10-05T05:04:47.798Z,12.50
2023-10-05T05:07:15.666Z,14.33
2023-10-05T05:09:43.681Z,12.93
2023-10-05T05:12:18.647Z,12.03
2023-10-05T05:14:47.798Z,13.20
2023-10-05T05:17:16.808Z,18.90
2023-10-05T05:19:45.938Z,11.50
2023-10-05T05:22:14.781Z,14.60
2023-10-05T05:24:42.728Z,12.97
2023-10-05T05:27:19.640Z,16.80
2023-10-05T05:29:47.973Z,15.03
2023-10-05T05:32:15.753Z,14.67
2023-10-05T05:34:44.162Z,16.73
2023-10-05T05:37:15.326Z,9.60
2023-10-05T05:39:44.041Z,8.67
2023-10-05T05:42:15.471Z,16.03
2023-10-05T05:44:43.279Z,10.20
2023-10-05T05:47:11.707Z,16.83
2023-10-05T05:49:39.875Z,12.50
2023-10-05T05:52:11.801Z,11.87
2023-10-05T05:54:40.140Z,12.67
2023-10-05T05:57:08.024Z,15.77
2023-10-05T05:59:35.824Z,18.23
2023-10-05T06:02:09.473Z,22.53
2023-10-05T06:04:37.622Z,14.27
2023-10-05T06:07:12.787Z,14.33
2023-10-05T06:09:46.909Z,9.07
2023-10-05T06:12:17.542Z,10.10
2023-10-05T06:19:07.868Z,5.63
2023-10-05T06:21:36.554Z,12.00
2023-10-05T06:24:56.229Z,8.77
2023-10-05T06:27:24.179Z,13.20
2023-10-05T06:29:51.959Z,12.33
2023-10-05T06:32:19.738Z,13.07
2023-10-05T06:34:49.261Z,10.30
2023-10-05T06:37:17.156Z,9.17
2023-10-05T06:39:45.042Z,30.47
2023-10-05T06:42:16.801Z,10.37
2023-10-05T06:44:45.915Z,12.93
2023-10-05T06:47:33.635Z,15.33
2023-10-05T06:50:01.664Z,10.43
2023-10-05T06:52:29.396Z,13.70
2023-10-05T06:54:57.164Z,16.23
2023-10-05T06:57:24.897Z,11.63
2023-10-05T06:59:56.550Z,32.03
2023-10-05T07:02:24.336Z,22.67
2023-10-05T07:04:52.177Z,13.27
2023-10-05T07:07:20.694Z,15.43
2023-10-05T07:09:48.498Z,10.57
2023-10-05T07:12:16.256Z,11.30
2023-10-05T07:14:45.790Z,11.63
2023-10-05T07:17:13.493Z,13.10
2023-10-05T07:19:43.073Z,11.57
2023-10-05T07:22:10.836Z,14.37
2023-10-05T07:24:38.586Z,18.77
2023-10-05T07:27:06.515Z,10.77
2023-10-05T07:29:35.032Z,15.37
2023-10-05T07:32:03.456Z,19.30
2023-10-05T07:34:32.115Z,12.77
2023-10-05T07:36:59.950Z,8.70
2023-10-05T07:39:29.887Z,7.97
2023-10-05T07:41:57.727Z,13.17
2023-10-05T07:44:25.629Z,9.53
2023-10-05T07:46:53.511Z,11.68
2023-10-05T07:49:21.941Z,10.10
2023-10-05T07:51:49.897Z,9.13
2023-10-05T07:54:17.680Z,5.40
2023-10-05T07:56:46.664Z,7.10
2023-10-05T07:59:17.409Z,9.88
2023-10-05T08:01:46.009Z,7.32
2023-10-05T08:04:14.023Z,5.97
2023-10-05T08:06:45.330Z,8.57
2023-10-05T08:09:27.792Z,9.80
2023-10-05T08:11:58.471Z,10.10
2023-10-05T08:14:26.309Z,13.60
2023-10-05T08:16:56.377Z,8.93
2023-10-05T08:19:26.252Z,7.40
2023-10-05T08:21:54.775Z,7.05
2023-10-05T08:24:24.930Z,9.25
2023-10-05T08:26:58.783Z,7.45
2023-10-05T08:29:27.730Z,7.35
2023-10-05T08:31:55.527Z,11.35
2023-10-05T08:34:23.540Z,5.32
2023-10-05T08:36:54.621Z,8.23
2023-10-05T08:39:29.044Z,7.00
2023-10-05T08:41:58.785Z,10.88
2023-10-05T08:44:29.820Z,13.07
2023-10-05T08:46:57.836Z,13.50
2023-10-05T08:49:26.107Z,5.45
2023-10-05T08:52:03.478Z,8.18
2023-10-05T08:54:34.572Z,5.15
2023-10-05T08:57:10.832Z,12.48
2023-10-05T08:59:40.621Z,5.45
2023-10-05T09:02:09.612Z,6.20
2023-10-05T09:04:46.730Z,6.22
2023-10-05T09:07:31.722Z,9.25
2023-10-05T09:09:59.830Z,5.57
2023-10-05T09:12:37.342Z,8.55
2023-10-05T09:15:06.564Z,8.90
2023-10-05T09:17:37.314Z,6.07
2023-10-05T09:20:34.355Z,9.48
2023-10-05T09:23:07.067Z,9.27
2023-10-05T09:25:41.461Z,4.75
2023-10-05T09:28:15.905Z,6.47
2023-10-05T09:31:01.340Z,5.68
2023-10-05T09:33:35.175Z,4.60
2023-10-05T09:36:17.555Z,7.65
2023-10-05T09:38:48.046Z,4.88
2023-10-05T09:41:19.524Z,5.20
2023-10-05T09:43:52.764Z,5.22
2023-10-05T09:46:21.787Z,9.80
2023-10-05T09:48:50.318Z,6.95
2023-10-05T09:51:18.118Z,4.63
2023-10-05T09:53:48.289Z,6.57
2023-10-05T09:56:23.542Z,5.85
2023-10-05T09:59:00.443Z,6.05
2023-10-05T10:01:28.359Z,8.05
2023-10-05T10:03:56.644Z,5.82
2023-10-05T10:06:29.549Z,4.57
2023-10-05T10:09:08.797Z,9.77
2023-10-05T10:11:36.941Z,7.97
2023-10-05T10:14:11.119Z,5.25
2023-10-05T10:16:43.262Z,6.90
2023-10-05T10:19:21.192Z,6.97
2023-10-05T10:21:51.048Z,8.48
2023-10-05T10:24:19.258Z,6.38
2023-10-05T10:27:14.631Z,10.20
2023-10-05T10:29:46.959Z,5.38
2023-10-05T10:32:21.601Z,5.20
2023-10-05T10:35:10.984Z,4.22
2023-10-05T10:37:45.767Z,5.88
2023-10-05T10:40:23.459Z,6.10
2023-10-05T10:43:08.977Z,5.78
2023-10-05T10:45:42.705Z,5.75
2023-10-05T10:48:20.741Z,8.65
2023-10-05T10:50:53.891Z,6.03
2023-10-05T10:53:26.947Z,5.05
2023-10-05T10:56:19.626Z,5.22
2023-10-05T10:58:49.552Z,6.20
2023-10-05T11:01:42.531Z,4.95
2023-10-05T11:04:25.032Z,4.88
2023-10-05T11:06:57.980Z,4.55
2023-10-05T11:09:35.371Z,4.30
2023-10-05T11:12:13.809Z,5.00
2023-10-05T11:14:43.613Z,3.72
2023-10-05T11:17:37.402Z,4.60
2023-10-05T11:20:19.044Z,4.88
2023-10-05T11:22:46.903Z,4.78
2023-10-05T11:25:17.799Z,5.53
2023-10-05T11:27:56.603Z,6.07
2023-10-05T11:30:53.625Z,5.28
2023-10-05T11:34:06.574Z,6.70
2023-10-05T11:36:46.010Z,7.40
2023-10-05T11:39:23.540Z,4.43
2023-10-05T11:41:52.330Z,9.30
2023-10-05T11:44:25.583Z,4.63
2023-10-05T11:46:56.253Z,4.45
2023-10-05T11:49:32.469Z,4.88
2023-10-05T11:52:01.731Z,5.25
2023-10-05T11:54:32.486Z,4.20
2023-10-05T11:57:06.657Z,4.70
2023-10-05T11:59:37.280Z,4.78
2023-10-05T12:02:10.272Z,11.10
2023-10-05T12:04:40.888Z,8.45
2023-10-05T12:07:12.560Z,5.15
2023-10-05T12:09:44.459Z,10.00
2023-10-05T12:12:14.615Z,5.97
2023-10-05T12:14:42.394Z,5.68
2023-10-05T12:17:11.462Z,5.38
2023-10-05T12:19:40.677Z,4.13
2023-10-05T12:22:15.087Z,5.03
2023-10-05T12:24:43.229Z,4.97
2023-10-05T12:27:22.216Z,5.45
2023-10-05T12:29:50.124Z,6.15
2023-10-05T12:32:18.919Z,4.38
2023-10-05T12:34:49.963Z,5.72
2023-10-05T12:37:22.810Z,3.75
2023-10-05T12:39:50.897Z,5.10
2023-10-05T12:42:21.652Z,4.35
2023-10-05T12:44:50.164Z,7.38
2023-10-05T12:47:18.256Z,4.50
2023-10-05T12:49:46.964Z,5.03
2023-10-05T12:52:14.879Z,4.45
2023-10-05T12:54:44.044Z,6.80
2023-10-05T12:59:43.524Z,6.00
2023-10-05T13:02:17.833Z,4.57
2023-10-05T13:04:46.102Z,10.00
2023-10-05T13:07:19.330Z,5.00
2023-10-05T13:10:00.501Z,3.63
2023-10-05T13:12:28.951Z,6.05
2023-10-05T13:14:56.661Z,7.47
2023-10-05T13:17:26.359Z,4.15
2023-10-05T13:19:54.228Z,4.15
2023-10-05T13:22:22.432Z,3.83
2023-10-05T13:24:56.511Z,4.07
2023-10-05T13:27:25.750Z,4.65
2023-10-05T13:29:55.455Z,6.60
2023-10-05T13:32:24.228Z,5.88
2023-10-05T13:34:52.128Z,5.72
2023-10-05T13:37:21.033Z,7.35
2023-10-05T13:39:49.120Z,7.72
2023-10-05T13:42:26.961Z,5.78
2023-10-05T13:44:55.937Z,5.53
2023-10-05T13:47:43.243Z,9.25
2023-10-05T13:50:16.679Z,4.25
2023-10-05T13:52:47.065Z,7.32
2023-10-05T13:55:15.504Z,5.00
2023-10-05T13:57:43.934Z,5.00
2023-10-05T14:00:19.149Z,3.88
2023-10-05T14:02:50.849Z,7.90
2023-10-05T14:05:22.100Z,8.00
2023-10-05T14:07:52.758Z,4.82
2023-10-05T14:10:24.867Z,4.38
2023-10-05T14:12:52.746Z,5.03
2023-10-05T14:15:23.949Z,4.75
2023-10-05T14:17:52.227Z,4.22
2023-10-05T14:20:20.239Z,5.85
2023-10-05T14:22:48.288Z,10.43
2023-10-05T14:25:19.934Z,6.82
2023-10-05T14:27:49.342Z,9.23
2023-10-05T14:30:21.378Z,8.68
2023-10-05T14:32:52.221Z,3.75
2023-10-05T14:35:20.357Z,4.78
2023-10-05T14:37:51.074Z,4.55
2023-10-05T14:40:25.657Z,4.45
2023-10-05T14:42:57.942Z,3.67
2023-10-05T14:45:28.302Z,3.95
2023-10-05T14:47:59.369Z,4.60
2023-10-05T14:50:27.408Z,6.22
2023-10-05T14:52:56.728Z,6.45
2023-10-05T14:55:24.792Z,6.82
2023-10-05T14:57:52.724Z,6.10
2023-10-05T15:00:20.550Z,4.53
2023-10-05T15:02:48.456Z,4.22
2023-10-05T15:05:16.360Z,5.20
2023-10-05T15:07:44.229Z,7.18
2023-10-05T15:10:18.728Z,4.15
2023-10-05T15:12:50.523Z,5.53
2023-10-05T15:15:18.684Z,5.95
2023-10-05T15:17:47.358Z,4.78
2023-10-05T15:20:18.162Z,7.28
2023-10-05T15:22:46.119Z,8.27
2023-10-05T15:25:16.630Z,4.95
2023-10-05T15:27:44.619Z,7.03
2023-10-05T15:30:16.659Z,4.32
2023-10-05T15:32:46.429Z,7.78
2023-10-05T15:35:15.719Z,6.50
2023-10-05T15:37:44.687Z,6.20
2023-10-05T15:40:16.318Z,11.80
2023-10-05T15:42:48.215Z,6.75
2023-10-05T15:45:17.773Z,6.70
2023-10-05T15:47:45.637Z,9.23
2023-10-05T15:50:17.101Z,6.03
2023-10-05T15:52:57.250Z,5.75
2023-10-05T15:55:26.119Z,11.75
2023-10-05T15:57:55.106Z,12.73
2023-10-05T16:00:30.238Z,14.57
2023-10-05T16:02:59.501Z,9.25
2023-10-05T16:05:28.852Z,9.38
2023-10-05T16:07:57.433Z,13.60
2023-10-05T16:10:25.222Z,9.60
2023-10-05T16:12:54.390Z,5.72
2023-10-05T16:15:22.341Z,7.20
2023-10-05T16:17:50.269Z,14.65
2023-10-05T16:20:26.463Z,20.10
2023-10-05T16:23:02.271Z,9.35
2023-10-05T16:25:30.237Z,8.98
2023-10-05T16:27:58.338Z,7.82
2023-10-05T16:30:26.169Z,10.77
2023-10-05T16:32:59.246Z,14.63
2023-10-05T16:35:27.300Z,9.80
2023-10-05T16:37:55.767Z,12.43
2023-10-05T16:40:26.781Z,9.55
2023-10-05T16:42:54.804Z,8.70
2023-10-05T16:45:23.156Z,5.70
2023-10-05T16:47:52.193Z,8.68
2023-10-05T16:50:20.884Z,7.25
2023-10-05T16:52:49.967Z,7.68
2023-10-05T16:55:22.664Z,6.13
2023-10-05T16:57:54.799Z,5.68
2023-10-05T17:00:28.267Z,5.10
2023-10-05T17:02:56.869Z,7.93
2023-10-05T17:05:29.641Z,9.13
2023-10-05T17:08:00.492Z,4.70
2023-10-05T17:10:28.839Z,4.20
2023-10-05T17:12:56.823Z,5.43
2023-10-05T17:15:25.179Z,9.85
2023-10-05T17:17:57.274Z,8.77
2023-10-05T17:20:25.324Z,11.95
2023-10-05T17:22:56.198Z,5.88
2023-10-05T17:25:24.644Z,10.18
2023-10-05T17:27:52.911Z,7.30
2023-10-05T17:30:20.790Z,13.98
2023-10-05T17:32:49.037Z,11.43
2023-10-05T17:35:25.728Z,9.90
2023-10-05T17:37:54.967Z,7.68
2023-10-05T17:40:23.117Z,6.78
2023-10-05T17:42:51.043Z,7.05
2023-10-05T17:45:19.990Z,10.95
2023-10-05T17:47:50.274Z,10.82
2023-10-05T17:50:18.243Z,23.73
2023-10-05T17:52:46.762Z,11.43
2023-10-05T17:55:15.457Z,8.68
2023-10-05T17:57:43.675Z,7.40
2023-10-05T18:00:16.762Z,12.68
2023-10-05T18:02:46.080Z,9.25
2023-10-05T18:05:16.928Z,11.13
2023-10-05T18:07:45.134Z,9.73
2023-10-05T18:10:13.163Z,9.85
2023-10-05T18:12:41.336Z,14.60
2023-10-05T18:15:09.379Z,11.27
2023-10-05T18:17:37.222Z,9.93
2023-10-05T18:20:05.673Z,26.80
2023-10-05T18:22:33.971Z,20.25
2023-10-05T18:25:01.993Z,19.98
2023-10-05T18:27:29.826Z,15.05
2023-10-05T18:29:59.214Z,18.83
2023-10-05T18:32:27.141Z,12.23
2023-10-05T18:34:55.069Z,11.77
2023-10-05T18:37:22.843Z,10.52
2023-10-05T18:39:50.689Z,20.55
2023-10-05T18:42:19.992Z,16.73
2023-10-05T18:44:47.858Z,23.63
2023-10-05T18:47:15.750Z,19.02
2023-10-05T18:49:43.542Z,24.85
2023-10-05T18:52:11.725Z,30.73
2023-10-05T18:54:39.561Z,38.00
2023-10-05T18:57:07.874Z,31.95
2023-10-05T18:59:35.767Z,24.10
2023-10-05T19:02:04.269Z,15.63
2023-10-05T19:04:33.478Z,11.80
2023-10-05T19:07:01.455Z,25.15
2023-10-05T19:09:29.203Z,24.85
2023-10-05T19:11:57.019Z,48.45
2023-10-05T19:14:25.244Z,48.78
2023-10-05T19:16:53.489Z,43.70
2023-10-05T19:19:21.351Z,46.53
2023-10-05T19:21:49.117Z,44.33
2023-10-05T19:24:16.849Z,46.90
2023-10-05T19:26:49.171Z,38.72
2023-10-05T19:29:19.860Z,40.17
2023-10-05T19:31:47.802Z,35.58
2023-10-05T19:34:16.474Z,53.67
2023-10-05T19:36:44.370Z,34.40
2023-10-05T19:39:12.196Z,31.10
2023-10-05T19:41:40.134Z,32.03
2023-10-05T19:44:08.146Z,25.48
2023-10-05T19:46:37.225Z,26.17
2023-10-05T19:49:07.659Z,22.95
2023-10-05T19:51:35.944Z,27.35
2023-10-05T19:54:05.026Z,23.25
2023-10-05T19:56:37.586Z,21.58
2023-10-05T19:59:06.178Z,14.47
2023-10-05T20:01:34.021Z,10.73
2023-10-05T20:04:02.425Z,14.20
2023-10-05T20:06:31.058Z,13.25
2023-10-05T20:08:59.162Z,23.00
2023-10-05T20:11:26.961Z,19.37
2023-10-05T20:13:54.791Z,15.10
2023-10-05T20:16:22.609Z,13.97
2023-10-05T20:18:50.414Z,13.53
2023-10-05T20:21:18.227Z,12.37
2023-10-05T20:23:46.634Z,11.10
2023-10-05T20:26:14.364Z,13.57
2023-10-05T20:28:42.199Z,10.80
2023-10-05T20:31:10.847Z,12.10
2023-10-05T20:33:38.810Z,8.33
2023-10-05T20:36:07.685Z,11.20
2023-10-05T20:38:35.447Z,7.17
2023-10-05T20:41:05.745Z,8.33
2023-10-05T20:43:34.194Z,10.17
2023-10-05T20:46:09.091Z,10.30
2023-10-05T20:48:37.880Z,9.93
2023-10-05T20:51:05.741Z,9.23
2023-10-05T20:53:35.107Z,12.67
2023-10-05T20:56:12.727Z,8.37
2023-10-05T20:58:40.658Z,19.47
2023-10-05T21:01:08.486Z,13.47
2023-10-05T21:03:36.645Z,10.23
2023-10-05T21:06:06.020Z,13.40
2023-10-05T21:08:34.884Z,10.67
2023-10-05T21:11:03.601Z,8.60
2023-10-05T21:13:37.560Z,9.43
2023-10-05T21:16:05.576Z,14.07
2023-10-05T21:18:33.407Z,9.10
2023-10-05T21:21:01.252Z,10.53
2023-10-05T21:23:30.597Z,8.73
2023-10-05T21:25:58.409Z,9.10
2023-10-05T21:28:26.941Z,8.30
2023-10-05T21:30:55.363Z,9.07
2023-10-05T21:33:23.305Z,7.07
2023-10-05T21:35:51.269Z,7.03
2023-10-05T21:38:18.996Z,8.23
2023-10-05T21:40:46.817Z,7.93
2023-10-05T21:43:14.656Z,8.83
2023-10-05T21:45:42.349Z,8.57
2023-10-05T21:48:10.165Z,11.50
2023-10-05T21:50:37.911Z,5.27
2023-10-05T21:53:06.392Z,5.23
2023-10-05T21:55:34.809Z,8.73
2023-10-05T21:58:02.660Z,6.47
2023-10-05T22:00:42.508Z,6.00
2023-10-05T22:03:10.487Z,6.77
2023-10-05T22:05:38.678Z,6.80
2023-10-05T22:08:09.611Z,7.03
2023-10-05T22:10:41.419Z,7.43
2023-10-05T22:13:12.431Z,6.67
2023-10-05T22:15:40.206Z,8.80
2023-10-05T22:18:08.075Z,13.03
2023-10-05T22:20:36.629Z,12.57
2023-10-05T22:23:05.405Z,12.30
2023-10-05T22:25:36.768Z,14.03
2023-10-05T22:28:06.312Z,20.30
2023-10-05T22:30:34.770Z,20.93
2023-10-05T22:33:03.156Z,17.40
2023-10-05T22:35:30.980Z,22.70
2023-10-05T22:37:58.877Z,27.63
2023-10-05T22:40:26.732Z,22.00
2023-10-05T22:42:54.539Z,24.47
2023-10-05T22:45:23.350Z,20.43
2023-10-05T22:47:51.245Z,23.00
2023-10-05T22:50:19.048Z,28.13
2023-10-05T22:52:46.824Z,34.17
2023-10-05T22:55:14.649Z,41.30
2023-10-05T22:57:42.416Z,50.93
2023-10-05T23:00:13.444Z,49.93
2023-10-05T23:02:41.388Z,21.80
2023-10-05T23:05:09.764Z,17.93
2023-10-05T23:07:40.391Z,8.93
2023-10-05T23:10:08.558Z,11.77
2023-10-05T23:12:36.413Z,12.03
2023-10-05T23:15:06.159Z,12.90
2023-10-05T23:17:37.884Z,16.57
2023-10-05T23:20:12.205Z,24.37
2023-10-05T23:22:43.199Z,40.60
2023-10-05T23:25:22.534Z,37.93
2023-10-05T23:27:50.842Z,28.97
2023-10-05T23:30:19.417Z,23.50
2023-10-05T23:32:48.470Z,22.70
2023-10-05T23:35:17.250Z,21.53
2023-10-05T23:37:46.020Z,17.60
2023-10-05T23:40:13.917Z,17.10
2023-10-05T23:42:42.121Z,9.87
2023-10-05T23:45:12.286Z,17.23
2023-10-05T23:47:40.216Z,13.37
2023-10-05T23:50:11.828Z,15.23
2023-10-05T23:52:39.757Z,7.87
2023-10-05T23:55:10.054Z,13.30
2023-10-05T23:57:38.688Z,11.23
